Red Elm, South Dakota
Current Conditions -  °F | °C
As of 1:55 AM on Wednesday 22 Oct 2014 (Local Time) from KPHP Reporting Station
Clear Clear  
Wind Chill: 67°   Ceiling: Unl
Heat Index: 67°   Visibility: 10mi
Dew Point: 50°   Wind: 10mph
Humidity: 54%   Direction: 250°WSW
Pressure: 29.74"   Gusts: NA
Location:  45.0029°N, 101.639°W
Report Text: KPHP 220755Z AUTO 25009KT 10SM CLR 19/10 A2974 RMK AO2 SLP050 T01940100
Loading
Personal Weather Stations






























Interactive Weather Map
Tropical Storm Tracking
New forecast layout! Learn more

10-Day Weather Forecast

Advertisements
Track Severe Weather on mobile